Terminal Aerodrome Forecast
Issued by NWS Upton, NY

Home | Current Version | Previous Version | Text Only | Print | Product List | Glossary On
Versions: 1 2 3 4 5 6 7 8 9 10 11 12 13 14 15 16 17 18 19 20 21 22 23 24 25 26 27 28 29
000
FTUS41 KOKX 182000 AAA
TAFEWR
TAF AMD
KEWR 182037Z 1821/1924 30013G22KT P6SM BKN040
     FM190100 30010KT P6SM SCT050
     FM191300 33013G19KT P6SM SCT035=

USA.gov is the U.S. government's official web portal to all federal, state and local government web resources and services.